sensor_id;sensor_type;location;lat;lon;timestamp;P1;durP1;ratioP1;P2;durP2;ratioP2
51238;SDS011;38154;47.548;18.828;2022-09-09T00:00:12;1.17;;;0.70;;
51238;SDS011;38154;47.548;18.828;2022-09-09T00:02:42;1.02;;;0.93;;
51238;SDS011;38154;47.548;18.828;2022-09-09T00:07:51;0.80;;;0.80;;
51238;SDS011;38154;47.548;18.828;2022-09-09T00:10:22;1.98;;;1.15;;
51238;SDS011;38154;47.548;18.828;2022-09-09T00:13:00;1.20;;;0.88;;
51238;SDS011;38154;47.548;18.828;2022-09-09T00:15:37;1.10;;;0.75;;
51238;SDS011;38154;47.548;18.828;2022-09-09T00:21:13;2.08;;;1.05;;
51238;SDS011;38154;47.548;18.828;2022-09-09T00:23:44;1.92;;;1.02;;
51238;SDS011;38154;47.548;18.828;2022-09-09T00:31:44;1.27;;;0.88;;
51238;SDS011;38154;47.548;18.828;2022-09-09T00:34:13;3.17;;;1.08;;
51238;SDS011;38154;47.548;18.828;2022-09-09T00:36:50;0.85;;;0.85;;
51238;SDS011;38154;47.548;18.828;2022-09-09T00:39:29;1.98;;;1.15;;
51238;SDS011;38154;47.548;18.828;2022-09-09T00:44:51;1.25;;;1.05;;
51238;SDS011;38154;47.548;18.828;2022-09-09T00:52:23;3.03;;;0.93;;
51238;SDS011;38154;47.548;18.828;2022-09-09T00:55:21;1.33;;;1.00;;
51238;SDS011;38154;47.548;18.828;2022-09-09T00:57:59;0.75;;;0.75;;
51238;SDS011;38154;47.548;18.828;2022-09-09T01:00:27;1.50;;;1.27;;
51238;SDS011;38154;47.548;18.828;2022-09-09T01:11:21;1.92;;;1.25;;
51238;SDS011;38154;47.548;18.828;2022-09-09T01:16:57;1.48;;;1.05;;
51238;SDS011;38154;47.548;18.828;2022-09-09T01:19:37;1.58;;;1.15;;
51238;SDS011;38154;47.548;18.828;2022-09-09T01:22:15;0.80;;;0.80;;
51238;SDS011;38154;47.548;18.828;2022-09-09T01:25:01;1.40;;;1.00;;
51238;SDS011;38154;47.548;18.828;2022-09-09T01:27:31;1.35;;;1.20;;
51238;SDS011;38154;47.548;18.828;2022-09-09T01:29:59;1.50;;;1.00;;
51238;SDS011;38154;47.548;18.828;2022-09-09T01:32:48;0.73;;;0.70;;
51238;SDS011;38154;47.548;18.828;2022-09-09T01:38:00;1.67;;;1.27;;
51238;SDS011;38154;47.548;18.828;2022-09-09T01:40:26;1.43;;;1.00;;
51238;SDS011;38154;47.548;18.828;2022-09-09T01:42:52;0.80;;;0.80;;
51238;SDS011;38154;47.548;18.828;2022-09-09T01:45:19;0.75;;;0.75;;
51238;SDS011;38154;47.548;18.828;2022-09-09T01:47:46;1.00;;;0.90;;
51238;SDS011;38154;47.548;18.828;2022-09-09T01:50:14;1.23;;;1.08;;
51238;SDS011;38154;47.548;18.828;2022-09-09T01:52:42;1.75;;;1.23;;
51238;SDS011;38154;47.548;18.828;2022-09-09T01:55:12;1.23;;;1.00;;
51238;SDS011;38154;47.548;18.828;2022-09-09T02:00:36;1.40;;;1.30;;
51238;SDS011;38154;47.548;18.828;2022-09-09T02:08:54;1.25;;;1.15;;
51238;SDS011;38154;47.548;18.828;2022-09-09T02:11:22;2.60;;;1.42;;
51238;SDS011;38154;47.548;18.828;2022-09-09T02:13:54;1.80;;;1.10;;
51238;SDS011;38154;47.548;18.828;2022-09-09T02:16:27;1.50;;;1.30;;
51238;SDS011;38154;47.548;18.828;2022-09-09T02:19:23;1.55;;;1.02;;
51238;SDS011;38154;47.548;18.828;2022-09-09T02:21:56;1.50;;;1.40;;
51238;SDS011;38154;47.548;18.828;2022-09-09T02:24:25;2.03;;;1.40;;
51238;SDS011;38154;47.548;18.828;2022-09-09T02:26:54;1.80;;;1.20;;
51238;SDS011;38154;47.548;18.828;2022-09-09T02:29:27;1.77;;;1.05;;
51238;SDS011;38154;47.548;18.828;2022-09-09T02:31:58;1.58;;;1.40;;
51238;SDS011;38154;47.548;18.828;2022-09-09T02:34:28;1.67;;;1.25;;
51238;SDS011;38154;47.548;18.828;2022-09-09T02:36:57;2.22;;;1.30;;
51238;SDS011;38154;47.548;18.828;2022-09-09T02:39:25;4.78;;;1.30;;
51238;SDS011;38154;47.548;18.828;2022-09-09T02:41:51;1.63;;;1.33;;
51238;SDS011;38154;47.548;18.828;2022-09-09T02:44:17;1.37;;;1.25;;
51238;SDS011;38154;47.548;18.828;2022-09-09T02:46:48;2.22;;;1.48;;
51238;SDS011;38154;47.548;18.828;2022-09-09T02:54:35;2.05;;;1.65;;
51238;SDS011;38154;47.548;18.828;2022-09-09T02:59:33;1.92;;;1.55;;
51238;SDS011;38154;47.548;18.828;2022-09-09T03:01:59;2.08;;;1.52;;
51238;SDS011;38154;47.548;18.828;2022-09-09T03:04:25;3.23;;;1.70;;
51238;SDS011;38154;47.548;18.828;2022-09-09T03:06:51;1.23;;;1.13;;
51238;SDS011;38154;47.548;18.828;2022-09-09T03:09:16;2.53;;;1.57;;
51238;SDS011;38154;47.548;18.828;2022-09-09T03:11:42;2.60;;;2.10;;
51238;SDS011;38154;47.548;18.828;2022-09-09T03:14:08;2.00;;;1.70;;
51238;SDS011;38154;47.548;18.828;2022-09-09T03:16:37;1.70;;;1.30;;
51238;SDS011;38154;47.548;18.828;2022-09-09T03:19:02;1.55;;;1.45;;
51238;SDS011;38154;47.548;18.828;2022-09-09T03:21:28;3.77;;;1.97;;
51238;SDS011;38154;47.548;18.828;2022-09-09T03:23:54;2.40;;;1.40;;
51238;SDS011;38154;47.548;18.828;2022-09-09T03:26:21;2.20;;;1.87;;
51238;SDS011;38154;47.548;18.828;2022-09-09T03:28:46;2.85;;;1.75;;
51238;SDS011;38154;47.548;18.828;2022-09-09T03:31:12;7.35;;;2.60;;
51238;SDS011;38154;47.548;18.828;2022-09-09T03:33:38;2.85;;;2.30;;
51238;SDS011;38154;47.548;18.828;2022-09-09T03:36:06;3.72;;;2.37;;
51238;SDS011;38154;47.548;18.828;2022-09-09T03:38:33;3.83;;;2.35;;
51238;SDS011;38154;47.548;18.828;2022-09-09T03:41:00;3.92;;;3.00;;
51238;SDS011;38154;47.548;18.828;2022-09-09T03:43:27;3.67;;;2.55;;
51238;SDS011;38154;47.548;18.828;2022-09-09T03:45:55;3.90;;;2.45;;
51238;SDS011;38154;47.548;18.828;2022-09-09T03:48:22;3.75;;;2.50;;
51238;SDS011;38154;47.548;18.828;2022-09-09T03:50:50;4.45;;;2.00;;
51238;SDS011;38154;47.548;18.828;2022-09-09T03:53:18;3.87;;;2.72;;
51238;SDS011;38154;47.548;18.828;2022-09-09T03:55:45;4.90;;;2.95;;
51238;SDS011;38154;47.548;18.828;2022-09-09T03:58:12;3.53;;;2.30;;
51238;SDS011;38154;47.548;18.828;2022-09-09T04:00:39;3.30;;;2.33;;
51238;SDS011;38154;47.548;18.828;2022-09-09T04:03:09;3.35;;;2.33;;
51238;SDS011;38154;47.548;18.828;2022-09-09T04:05:35;2.95;;;2.03;;
51238;SDS011;38154;47.548;18.828;2022-09-09T04:08:07;3.05;;;2.33;;
51238;SDS011;38154;47.548;18.828;2022-09-09T04:10:34;4.80;;;3.12;;
51238;SDS011;38154;47.548;18.828;2022-09-09T04:13:03;2.70;;;2.12;;
51238;SDS011;38154;47.548;18.828;2022-09-09T04:15:30;3.83;;;2.95;;
51238;SDS011;38154;47.548;18.828;2022-09-09T04:20:22;5.03;;;3.15;;
51238;SDS011;38154;47.548;18.828;2022-09-09T04:22:48;3.75;;;2.50;;
51238;SDS011;38154;47.548;18.828;2022-09-09T04:25:14;3.83;;;2.53;;
51238;SDS011;38154;47.548;18.828;2022-09-09T04:27:40;4.75;;;2.80;;
51238;SDS011;38154;47.548;18.828;2022-09-09T04:30:07;4.95;;;3.17;;
51238;SDS011;38154;47.548;18.828;2022-09-09T04:32:33;3.65;;;2.70;;
51238;SDS011;38154;47.548;18.828;2022-09-09T04:35:00;8.30;;;2.47;;
51238;SDS011;38154;47.548;18.828;2022-09-09T04:37:26;3.50;;;2.00;;
51238;SDS011;38154;47.548;18.828;2022-09-09T04:39:51;7.80;;;2.60;;
51238;SDS011;38154;47.548;18.828;2022-09-09T04:42:17;2.87;;;2.20;;
51238;SDS011;38154;47.548;18.828;2022-09-09T04:44:44;7.20;;;2.47;;
51238;SDS011;38154;47.548;18.828;2022-09-09T04:47:11;3.90;;;2.42;;
51238;SDS011;38154;47.548;18.828;2022-09-09T04:49:37;3.97;;;2.55;;
51238;SDS011;38154;47.548;18.828;2022-09-09T04:52:03;2.25;;;1.87;;
51238;SDS011;38154;47.548;18.828;2022-09-09T04:54:29;2.70;;;2.10;;
51238;SDS011;38154;47.548;18.828;2022-09-09T04:56:55;2.17;;;1.80;;
51238;SDS011;38154;47.548;18.828;2022-09-09T04:59:21;2.50;;;1.83;;
51238;SDS011;38154;47.548;18.828;2022-09-09T05:01:48;2.30;;;1.75;;
51238;SDS011;38154;47.548;18.828;2022-09-09T05:04:15;3.97;;;2.17;;
51238;SDS011;38154;47.548;18.828;2022-09-09T05:06:41;3.75;;;2.22;;
51238;SDS011;38154;47.548;18.828;2022-09-09T05:09:08;3.12;;;2.20;;
51238;SDS011;38154;47.548;18.828;2022-09-09T05:11:34;2.90;;;2.33;;
51238;SDS011;38154;47.548;18.828;2022-09-09T05:14:03;2.55;;;2.25;;
51238;SDS011;38154;47.548;18.828;2022-09-09T05:16:30;3.22;;;1.92;;
51238;SDS011;38154;47.548;18.828;2022-09-09T05:18:56;2.87;;;2.10;;
51238;SDS011;38154;47.548;18.828;2022-09-09T05:21:23;2.55;;;1.80;;
51238;SDS011;38154;47.548;18.828;2022-09-09T05:23:52;3.25;;;2.10;;
51238;SDS011;38154;47.548;18.828;2022-09-09T05:26:21;3.08;;;1.98;;
51238;SDS011;38154;47.548;18.828;2022-09-09T05:28:48;2.17;;;1.98;;
51238;SDS011;38154;47.548;18.828;2022-09-09T05:31:14;2.92;;;2.20;;
51238;SDS011;38154;47.548;18.828;2022-09-09T05:33:42;2.10;;;1.67;;
51238;SDS011;38154;47.548;18.828;2022-09-09T05:36:11;2.87;;;1.83;;
51238;SDS011;38154;47.548;18.828;2022-09-09T05:38:39;2.62;;;1.92;;
51238;SDS011;38154;47.548;18.828;2022-09-09T05:41:06;3.67;;;2.25;;
51238;SDS011;38154;47.548;18.828;2022-09-09T05:43:33;6.07;;;1.87;;
51238;SDS011;38154;47.548;18.828;2022-09-09T05:46:02;2.25;;;1.55;;
51238;SDS011;38154;47.548;18.828;2022-09-09T05:48:32;1.50;;;1.30;;
51238;SDS011;38154;47.548;18.828;2022-09-09T05:51:01;3.72;;;1.80;;
51238;SDS011;38154;47.548;18.828;2022-09-09T05:53:28;1.67;;;1.45;;
51238;SDS011;38154;47.548;18.828;2022-09-09T05:56:04;2.95;;;1.80;;
51238;SDS011;38154;47.548;18.828;2022-09-09T05:58:35;2.15;;;1.48;;
51238;SDS011;38154;47.548;18.828;2022-09-09T06:01:02;2.42;;;1.73;;
51238;SDS011;38154;47.548;18.828;2022-09-09T06:03:28;1.85;;;1.40;;
51238;SDS011;38154;47.548;18.828;2022-09-09T06:05:57;2.12;;;1.62;;
51238;SDS011;38154;47.548;18.828;2022-09-09T06:08:24;2.55;;;1.70;;
51238;SDS011;38154;47.548;18.828;2022-09-09T06:10:50;1.60;;;1.37;;
51238;SDS011;38154;47.548;18.828;2022-09-09T06:13:17;1.83;;;1.62;;
51238;SDS011;38154;47.548;18.828;2022-09-09T06:15:50;1.42;;;1.30;;
51238;SDS011;38154;47.548;18.828;2022-09-09T06:18:17;2.17;;;1.52;;
51238;SDS011;38154;47.548;18.828;2022-09-09T06:21:00;1.90;;;1.50;;
51238;SDS011;38154;47.548;18.828;2022-09-09T06:23:29;1.45;;;1.30;;
51238;SDS011;38154;47.548;18.828;2022-09-09T06:28:32;2.10;;;1.48;;
51238;SDS011;38154;47.548;18.828;2022-09-09T06:30:59;2.20;;;1.67;;
51238;SDS011;38154;47.548;18.828;2022-09-09T06:33:35;2.85;;;1.50;;
51238;SDS011;38154;47.548;18.828;2022-09-09T06:36:04;1.92;;;1.65;;
51238;SDS011;38154;47.548;18.828;2022-09-09T06:38:30;1.87;;;1.50;;
51238;SDS011;38154;47.548;18.828;2022-09-09T06:40:57;1.65;;;1.15;;
51238;SDS011;38154;47.548;18.828;2022-09-09T06:43:24;1.73;;;1.15;;
51238;SDS011;38154;47.548;18.828;2022-09-09T06:45:55;1.92;;;1.12;;
51238;SDS011;38154;47.548;18.828;2022-09-09T06:48:22;1.55;;;1.35;;
51238;SDS011;38154;47.548;18.828;2022-09-09T06:50:48;1.40;;;1.20;;
51238;SDS011;38154;47.548;18.828;2022-09-09T06:53:18;1.48;;;1.10;;
51238;SDS011;38154;47.548;18.828;2022-09-09T06:55:45;1.33;;;1.17;;
51238;SDS011;38154;47.548;18.828;2022-09-09T06:58:11;1.15;;;1.05;;
51238;SDS011;38154;47.548;18.828;2022-09-09T07:00:37;1.37;;;1.27;;
51238;SDS011;38154;47.548;18.828;2022-09-09T07:03:05;1.20;;;1.10;;
51238;SDS011;38154;47.548;18.828;2022-09-09T07:05:31;2.15;;;1.60;;
51238;SDS011;38154;47.548;18.828;2022-09-09T07:07:57;3.65;;;1.20;;
51238;SDS011;38154;47.548;18.828;2022-09-09T07:12:50;1.27;;;0.90;;
51238;SDS011;38154;47.548;18.828;2022-09-09T07:15:17;1.70;;;0.90;;
51238;SDS011;38154;47.548;18.828;2022-09-09T07:17:44;0.77;;;0.70;;
51238;SDS011;38154;47.548;18.828;2022-09-09T07:22:36;0.93;;;0.90;;
51238;SDS011;38154;47.548;18.828;2022-09-09T07:27:27;0.90;;;0.90;;
51238;SDS011;38154;47.548;18.828;2022-09-09T07:32:19;1.40;;;1.00;;
51238;SDS011;38154;47.548;18.828;2022-09-09T07:34:45;1.12;;;0.82;;
51238;SDS011;38154;47.548;18.828;2022-09-09T07:37:13;1.15;;;1.00;;
51238;SDS011;38154;47.548;18.828;2022-09-09T07:39:39;0.95;;;0.65;;
51238;SDS011;38154;47.548;18.828;2022-09-09T07:42:05;3.95;;;0.73;;
51238;SDS011;38154;47.548;18.828;2022-09-09T07:44:31;1.85;;;1.08;;
51238;SDS011;38154;47.548;18.828;2022-09-09T07:47:00;0.85;;;0.85;;
51238;SDS011;38154;47.548;18.828;2022-09-09T07:49:27;1.45;;;0.77;;
51238;SDS011;38154;47.548;18.828;2022-09-09T07:51:53;0.73;;;0.73;;
51238;SDS011;38154;47.548;18.828;2022-09-09T07:54:19;0.77;;;0.62;;
51238;SDS011;38154;47.548;18.828;2022-09-09T07:56:46;1.60;;;0.90;;
51238;SDS011;38154;47.548;18.828;2022-09-09T07:59:12;0.70;;;0.70;;
51238;SDS011;38154;47.548;18.828;2022-09-09T08:01:40;0.95;;;0.90;;
51238;SDS011;38154;47.548;18.828;2022-09-09T08:04:14;0.98;;;0.80;;
51238;SDS011;38154;47.548;18.828;2022-09-09T08:06:43;0.80;;;0.80;;
51238;SDS011;38154;47.548;18.828;2022-09-09T08:09:12;0.95;;;0.70;;
51238;SDS011;38154;47.548;18.828;2022-09-09T08:11:39;0.70;;;0.70;;
51238;SDS011;38154;47.548;18.828;2022-09-09T08:14:06;1.98;;;0.80;;
51238;SDS011;38154;47.548;18.828;2022-09-09T08:16:34;0.68;;;0.57;;
51238;SDS011;38154;47.548;18.828;2022-09-09T08:19:02;0.47;;;0.45;;
51238;SDS011;38154;47.548;18.828;2022-09-09T08:21:29;0.30;;;0.30;;
51238;SDS011;38154;47.548;18.828;2022-09-09T08:23:59;1.12;;;0.50;;
51238;SDS011;38154;47.548;18.828;2022-09-09T08:26:30;0.37;;;0.37;;
51238;SDS011;38154;47.548;18.828;2022-09-09T08:29:02;0.50;;;0.32;;
51238;SDS011;38154;47.548;18.828;2022-09-09T08:33:57;0.35;;;0.22;;
51238;SDS011;38154;47.548;18.828;2022-09-09T08:36:29;0.55;;;0.35;;
51238;SDS011;38154;47.548;18.828;2022-09-09T08:38:58;0.30;;;0.30;;
51238;SDS011;38154;47.548;18.828;2022-09-09T08:52:30;0.47;;;0.43;;
51238;SDS011;38154;47.548;18.828;2022-09-09T08:55:25;0.45;;;0.40;;
51238;SDS011;38154;47.548;18.828;2022-09-09T09:14:30;0.40;;;0.40;;
51238;SDS011;38154;47.548;18.828;2022-09-09T09:17:00;0.40;;;0.40;;
51238;SDS011;38154;47.548;18.828;2022-09-09T09:19:32;1.10;;;0.40;;
51238;SDS011;38154;47.548;18.828;2022-09-09T09:22:06;0.30;;;0.30;;
51238;SDS011;38154;47.548;18.828;2022-09-09T09:24:42;0.47;;;0.47;;
51238;SDS011;38154;47.548;18.828;2022-09-09T09:27:21;0.52;;;0.28;;
51238;SDS011;38154;47.548;18.828;2022-09-09T09:29:56;0.22;;;0.22;;
51238;SDS011;38154;47.548;18.828;2022-09-09T09:32:24;0.77;;;0.40;;
51238;SDS011;38154;47.548;18.828;2022-09-09T09:34:56;0.30;;;0.30;;
51238;SDS011;38154;47.548;18.828;2022-09-09T09:37:28;0.20;;;0.20;;
51238;SDS011;38154;47.548;18.828;2022-09-09T09:40:07;2.45;;;0.22;;
51238;SDS011;38154;47.548;18.828;2022-09-09T09:42:37;0.30;;;0.30;;
51238;SDS011;38154;47.548;18.828;2022-09-09T09:47:57;0.20;;;0.20;;
51238;SDS011;38154;47.548;18.828;2022-09-09T09:50:24;0.30;;;0.30;;
51238;SDS011;38154;47.548;18.828;2022-09-09T09:52:54;0.73;;;0.30;;
51238;SDS011;38154;47.548;18.828;2022-09-09T09:55:22;0.28;;;0.20;;
51238;SDS011;38154;47.548;18.828;2022-09-09T09:57:49;1.65;;;0.28;;
51238;SDS011;38154;47.548;18.828;2022-09-09T10:00:17;0.30;;;0.30;;
51238;SDS011;38154;47.548;18.828;2022-09-09T10:02:46;0.10;;;0.10;;
51238;SDS011;38154;47.548;18.828;2022-09-09T10:08:01;0.30;;;0.30;;
51238;SDS011;38154;47.548;18.828;2022-09-09T10:19:26;0.13;;;0.13;;
51238;SDS011;38154;47.548;18.828;2022-09-09T10:27:33;0.20;;;0.20;;
51238;SDS011;38154;47.548;18.828;2022-09-09T10:30:16;0.30;;;0.30;;
51238;SDS011;38154;47.548;18.828;2022-09-09T10:32:48;3.72;;;0.28;;
51238;SDS011;38154;47.548;18.828;2022-09-09T10:35:25;0.20;;;0.20;;
51238;SDS011;38154;47.548;18.828;2022-09-09T10:38:15;0.20;;;0.20;;
51238;SDS011;38154;47.548;18.828;2022-09-09T10:46:16;0.68;;;0.30;;
51238;SDS011;38154;47.548;18.828;2022-09-09T10:51:29;0.20;;;0.20;;
51238;SDS011;38154;47.548;18.828;2022-09-09T10:56:52;0.20;;;0.20;;
51238;SDS011;38154;47.548;18.828;2022-09-09T10:59:26;0.93;;;0.20;;
51238;SDS011;38154;47.548;18.828;2022-09-09T11:02:05;0.57;;;0.30;;
51238;SDS011;38154;47.548;18.828;2022-09-09T11:04:44;0.43;;;0.30;;
51238;SDS011;38154;47.548;18.828;2022-09-09T11:07:35;0.32;;;0.30;;
51238;SDS011;38154;47.548;18.828;2022-09-09T11:10:11;0.20;;;0.20;;
51238;SDS011;38154;47.548;18.828;2022-09-09T11:13:03;0.30;;;0.30;;
51238;SDS011;38154;47.548;18.828;2022-09-09T11:15:41;0.13;;;0.13;;
51238;SDS011;38154;47.548;18.828;2022-09-09T11:18:12;0.47;;;0.28;;
51238;SDS011;38154;47.548;18.828;2022-09-09T11:20:44;0.65;;;0.32;;
51238;SDS011;38154;47.548;18.828;2022-09-09T11:23:13;0.28;;;0.20;;
51238;SDS011;38154;47.548;18.828;2022-09-09T11:25:44;0.20;;;0.20;;
51238;SDS011;38154;47.548;18.828;2022-09-09T11:34:08;0.50;;;0.40;;
51238;SDS011;38154;47.548;18.828;2022-09-09T11:42:22;1.83;;;0.50;;
51238;SDS011;38154;47.548;18.828;2022-09-09T11:44:49;0.30;;;0.30;;
51238;SDS011;38154;47.548;18.828;2022-09-09T11:50:06;1.42;;;0.30;;
51238;SDS011;38154;47.548;18.828;2022-09-09T11:53:03;0.30;;;0.30;;
51238;SDS011;38154;47.548;18.828;2022-09-09T11:55:33;0.37;;;0.37;;
51238;SDS011;38154;47.548;18.828;2022-09-09T12:00:40;0.20;;;0.20;;
51238;SDS011;38154;47.548;18.828;2022-09-09T12:09:09;0.20;;;0.20;;
51238;SDS011;38154;47.548;18.828;2022-09-09T12:11:41;0.40;;;0.30;;
51238;SDS011;38154;47.548;18.828;2022-09-09T12:14:18;2.75;;;0.30;;
51238;SDS011;38154;47.548;18.828;2022-09-09T12:17:20;0.28;;;0.20;;
51238;SDS011;38154;47.548;18.828;2022-09-09T12:20:00;0.68;;;0.30;;
51238;SDS011;38154;47.548;18.828;2022-09-09T12:27:44;0.47;;;0.47;;
51238;SDS011;38154;47.548;18.828;2022-09-09T12:30:22;0.57;;;0.20;;
51238;SDS011;38154;47.548;18.828;2022-09-09T12:33:02;0.30;;;0.30;;
51238;SDS011;38154;47.548;18.828;2022-09-09T12:35:34;0.52;;;0.28;;
51238;SDS011;38154;47.548;18.828;2022-09-09T12:38:04;0.20;;;0.20;;
51238;SDS011;38154;47.548;18.828;2022-09-09T12:40:33;0.32;;;0.32;;
51238;SDS011;38154;47.548;18.828;2022-09-09T12:43:16;1.90;;;0.45;;
51238;SDS011;38154;47.548;18.828;2022-09-09T12:45:44;0.20;;;0.20;;
51238;SDS011;38154;47.548;18.828;2022-09-09T12:48:10;0.28;;;0.22;;
51238;SDS011;38154;47.548;18.828;2022-09-09T12:50:44;0.20;;;0.20;;
51238;SDS011;38154;47.548;18.828;2022-09-09T12:53:36;1.95;;;0.35;;
51238;SDS011;38154;47.548;18.828;2022-09-09T12:56:04;1.80;;;0.32;;
51238;SDS011;38154;47.548;18.828;2022-09-09T12:58:36;0.80;;;0.20;;
51238;SDS011;38154;47.548;18.828;2022-09-09T13:01:04;0.20;;;0.20;;
51238;SDS011;38154;47.548;18.828;2022-09-09T13:03:31;0.62;;;0.28;;
51238;SDS011;38154;47.548;18.828;2022-09-09T13:05:59;0.22;;;0.22;;
51238;SDS011;38154;47.548;18.828;2022-09-09T13:08:37;0.50;;;0.50;;
51238;SDS011;38154;47.548;18.828;2022-09-09T13:16:04;1.55;;;0.30;;
51238;SDS011;38154;47.548;18.828;2022-09-09T13:18:34;0.40;;;0.40;;
51238;SDS011;38154;47.548;18.828;2022-09-09T13:21:02;0.40;;;0.40;;
51238;SDS011;38154;47.548;18.828;2022-09-09T13:23:32;0.37;;;0.35;;
51238;SDS011;38154;47.548;18.828;2022-09-09T13:26:01;0.20;;;0.20;;
51238;SDS011;38154;47.548;18.828;2022-09-09T13:28:30;0.73;;;0.40;;
51238;SDS011;38154;47.548;18.828;2022-09-09T13:31:03;0.20;;;0.20;;
51238;SDS011;38154;47.548;18.828;2022-09-09T13:33:33;0.32;;;0.32;;
51238;SDS011;38154;47.548;18.828;2022-09-09T13:38:35;0.30;;;0.30;;
51238;SDS011;38154;47.548;18.828;2022-09-09T13:41:07;0.20;;;0.20;;
51238;SDS011;38154;47.548;18.828;2022-09-09T13:43:42;0.30;;;0.30;;
51238;SDS011;38154;47.548;18.828;2022-09-09T13:49:23;0.20;;;0.20;;
51238;SDS011;38154;47.548;18.828;2022-09-09T13:51:49;0.77;;;0.40;;
51238;SDS011;38154;47.548;18.828;2022-09-09T13:54:18;0.73;;;0.57;;
51238;SDS011;38154;47.548;18.828;2022-09-09T13:56:45;0.30;;;0.30;;
51238;SDS011;38154;47.548;18.828;2022-09-09T13:59:13;0.30;;;0.30;;
51238;SDS011;38154;47.548;18.828;2022-09-09T14:01:45;0.40;;;0.40;;
51238;SDS011;38154;47.548;18.828;2022-09-09T14:04:11;3.92;;;0.47;;
51238;SDS011;38154;47.548;18.828;2022-09-09T14:06:38;0.20;;;0.20;;
51238;SDS011;38154;47.548;18.828;2022-09-09T14:09:05;0.22;;;0.22;;
51238;SDS011;38154;47.548;18.828;2022-09-09T14:11:32;0.52;;;0.30;;
51238;SDS011;38154;47.548;18.828;2022-09-09T14:16:23;0.30;;;0.30;;
51238;SDS011;38154;47.548;18.828;2022-09-09T14:18:52;0.30;;;0.30;;
51238;SDS011;38154;47.548;18.828;2022-09-09T14:21:18;0.20;;;0.20;;
51238;SDS011;38154;47.548;18.828;2022-09-09T14:23:44;1.05;;;0.32;;
51238;SDS011;38154;47.548;18.828;2022-09-09T14:26:10;0.20;;;0.20;;
51238;SDS011;38154;47.548;18.828;2022-09-09T14:28:36;0.73;;;0.43;;
51238;SDS011;38154;47.548;18.828;2022-09-09T14:31:03;0.35;;;0.35;;
51238;SDS011;38154;47.548;18.828;2022-09-09T14:33:29;0.57;;;0.43;;
51238;SDS011;38154;47.548;18.828;2022-09-09T14:35:56;0.30;;;0.30;;
51238;SDS011;38154;47.548;18.828;2022-09-09T14:38:22;0.20;;;0.20;;
51238;SDS011;38154;47.548;18.828;2022-09-09T14:40:48;0.85;;;0.30;;
51238;SDS011;38154;47.548;18.828;2022-09-09T14:43:14;0.30;;;0.30;;
51238;SDS011;38154;47.548;18.828;2022-09-09T14:48:06;0.30;;;0.30;;
51238;SDS011;38154;47.548;18.828;2022-09-09T14:52:57;0.62;;;0.20;;
51238;SDS011;38154;47.548;18.828;2022-09-09T14:57:48;0.20;;;0.20;;
51238;SDS011;38154;47.548;18.828;2022-09-09T15:00:15;0.20;;;0.20;;
51238;SDS011;38154;47.548;18.828;2022-09-09T15:05:07;0.30;;;0.30;;
51238;SDS011;38154;47.548;18.828;2022-09-09T15:07:33;0.22;;;0.20;;
51238;SDS011;38154;47.548;18.828;2022-09-09T15:09:59;0.37;;;0.37;;
51238;SDS011;38154;47.548;18.828;2022-09-09T15:12:25;0.30;;;0.30;;
51238;SDS011;38154;47.548;18.828;2022-09-09T15:14:51;0.73;;;0.35;;
51238;SDS011;38154;47.548;18.828;2022-09-09T15:17:19;0.37;;;0.30;;
51238;SDS011;38154;47.548;18.828;2022-09-09T15:19:46;0.30;;;0.20;;
51238;SDS011;38154;47.548;18.828;2022-09-09T15:22:11;0.20;;;0.20;;
51238;SDS011;38154;47.548;18.828;2022-09-09T15:24:37;0.30;;;0.20;;
51238;SDS011;38154;47.548;18.828;2022-09-09T15:27:03;0.55;;;0.40;;
51238;SDS011;38154;47.548;18.828;2022-09-09T15:29:29;0.55;;;0.45;;
51238;SDS011;38154;47.548;18.828;2022-09-09T15:31:55;1.83;;;0.45;;
51238;SDS011;38154;47.548;18.828;2022-09-09T15:34:21;0.47;;;0.30;;
51238;SDS011;38154;47.548;18.828;2022-09-09T15:36:46;0.88;;;0.43;;
51238;SDS011;38154;47.548;18.828;2022-09-09T15:39:14;0.50;;;0.20;;
51238;SDS011;38154;47.548;18.828;2022-09-09T15:41:41;0.45;;;0.40;;
51238;SDS011;38154;47.548;18.828;2022-09-09T15:44:09;0.25;;;0.25;;
51238;SDS011;38154;47.548;18.828;2022-09-09T15:46:43;0.30;;;0.28;;
51238;SDS011;38154;47.548;18.828;2022-09-09T15:49:19;0.57;;;0.50;;
51238;SDS011;38154;47.548;18.828;2022-09-09T15:51:52;5.95;;;0.40;;
51238;SDS011;38154;47.548;18.828;2022-09-09T15:54:20;0.65;;;0.32;;
51238;SDS011;38154;47.548;18.828;2022-09-09T15:56:53;0.25;;;0.20;;
51238;SDS011;38154;47.548;18.828;2022-09-09T15:59:24;1.15;;;0.28;;
51238;SDS011;38154;47.548;18.828;2022-09-09T16:01:51;0.30;;;0.30;;
51238;SDS011;38154;47.548;18.828;2022-09-09T16:04:17;0.35;;;0.35;;
51238;SDS011;38154;47.548;18.828;2022-09-09T16:06:54;0.40;;;0.40;;
51238;SDS011;38154;47.548;18.828;2022-09-09T16:09:23;0.30;;;0.30;;
51238;SDS011;38154;47.548;18.828;2022-09-09T16:11:50;1.75;;;0.50;;
51238;SDS011;38154;47.548;18.828;2022-09-09T16:14:18;0.52;;;0.30;;
51238;SDS011;38154;47.548;18.828;2022-09-09T16:16:44;0.62;;;0.50;;
51238;SDS011;38154;47.548;18.828;2022-09-09T16:19:11;0.37;;;0.30;;
51238;SDS011;38154;47.548;18.828;2022-09-09T16:21:39;0.52;;;0.40;;
51238;SDS011;38154;47.548;18.828;2022-09-09T16:24:08;0.37;;;0.32;;
51238;SDS011;38154;47.548;18.828;2022-09-09T16:26:36;0.55;;;0.40;;
51238;SDS011;38154;47.548;18.828;2022-09-09T16:29:04;1.95;;;0.40;;
51238;SDS011;38154;47.548;18.828;2022-09-09T16:31:31;0.45;;;0.37;;
51238;SDS011;38154;47.548;18.828;2022-09-09T16:33:57;0.52;;;0.52;;
51238;SDS011;38154;47.548;18.828;2022-09-09T16:36:25;0.93;;;0.80;;
51238;SDS011;38154;47.548;18.828;2022-09-09T16:38:53;1.75;;;0.60;;
51238;SDS011;38154;47.548;18.828;2022-09-09T16:41:20;0.65;;;0.45;;
51238;SDS011;38154;47.548;18.828;2022-09-09T16:43:47;0.40;;;0.40;;
51238;SDS011;38154;47.548;18.828;2022-09-09T16:46:18;1.42;;;0.40;;
51238;SDS011;38154;47.548;18.828;2022-09-09T16:51:13;0.50;;;0.50;;
51238;SDS011;38154;47.548;18.828;2022-09-09T16:53:42;0.85;;;0.60;;
51238;SDS011;38154;47.548;18.828;2022-09-09T16:56:09;0.43;;;0.43;;
51238;SDS011;38154;47.548;18.828;2022-09-09T16:58:41;1.80;;;0.60;;
51238;SDS011;38154;47.548;18.828;2022-09-09T17:01:09;1.12;;;0.88;;
51238;SDS011;38154;47.548;18.828;2022-09-09T17:03:39;0.52;;;0.50;;
51238;SDS011;38154;47.548;18.828;2022-09-09T17:06:08;1.37;;;0.60;;
51238;SDS011;38154;47.548;18.828;2022-09-09T17:08:39;0.70;;;0.70;;
51238;SDS011;38154;47.548;18.828;2022-09-09T17:11:12;0.73;;;0.73;;
51238;SDS011;38154;47.548;18.828;2022-09-09T17:13:42;0.60;;;0.60;;
51238;SDS011;38154;47.548;18.828;2022-09-09T17:16:09;0.35;;;0.35;;
51238;SDS011;38154;47.548;18.828;2022-09-09T17:18:35;0.73;;;0.52;;
51238;SDS011;38154;47.548;18.828;2022-09-09T17:21:14;0.55;;;0.52;;
51238;SDS011;38154;47.548;18.828;2022-09-09T17:23:43;0.32;;;0.32;;
51238;SDS011;38154;47.548;18.828;2022-09-09T17:26:11;0.50;;;0.40;;
51238;SDS011;38154;47.548;18.828;2022-09-09T17:28:40;2.58;;;0.62;;
51238;SDS011;38154;47.548;18.828;2022-09-09T17:31:08;0.50;;;0.50;;
51238;SDS011;38154;47.548;18.828;2022-09-09T17:33:36;9.57;;;0.70;;
51238;SDS011;38154;47.548;18.828;2022-09-09T17:36:08;0.30;;;0.30;;
51238;SDS011;38154;47.548;18.828;2022-09-09T17:38:38;1.60;;;0.60;;
51238;SDS011;38154;47.548;18.828;2022-09-09T17:41:06;0.50;;;0.50;;
51238;SDS011;38154;47.548;18.828;2022-09-09T17:43:34;0.40;;;0.40;;
51238;SDS011;38154;47.548;18.828;2022-09-09T17:48:38;0.73;;;0.55;;